PWSweather.com
Personal Weather Stations
Station Observations
WD4JKH
Forsyth, GA 31029

Forsyth, GA 31029

Lat: 33.033225, Lon: -83.927995

Elevation: 709

Station Type: Davis Vantage VUE

High Low Average
Temperature 83.3°F28.5°C 66.6°F19.2°C 74.4°F23.6°C
Dew Point 72.5°F22.5°C 64.0°F17.8°C 67.3°F19.6°C
Winds 7.3 mph 11.7 kmh Calm Calm 2.0 mph SW3.2 kmh SW
Wind Gusts 27.0 mph43.5 kmh 1.0 mph1.6 kmh 7.0 mph11.3 kmh
Humidity 97% 58% 79%
Pressure 29.93 in1013.5 mb 29.75 in1007.5 mb -
Precipitation 1.01 in25.7 mm - -
Hour Temp Dew Point Humidity Winds Wind Gusts Pressure Precip Precip Rate Daily Precip Total
12:03 AM 73.6°F23.1°C 67.1°F19.5°C 80% 1.0 mph WSW1.6 kmh WSW 1.0 mph1.6 kmh 29.94 in1013.9 mb 0.00 in0.0 mm 0.00 in0.0 mm 0.00 in0.0 mm
12:08 AM 73.4°F23.0°C 66.9°F19.4°C 80% 1.0 mph SW1.6 kmh SW 1.0 mph1.6 kmh 29.94 in1013.9 mb 0.00 in0.0 mm 0.00 in0.0 mm 0.00 in0.0 mm
12:13 AM 73.1°F22.8°C 66.9°F19.4°C 81% 1.0 mph SW1.6 kmh SW 2.0 mph3.2 kmh 29.94 in1013.9 mb 0.00 in0.0 mm 0.00 in0.0 mm 0.00 in0.0 mm
12:18 AM 73.1°F22.8°C 66.9°F19.4°C 81% 1.2 mph SW1.9 kmh SW 2.0 mph3.2 kmh 29.94 in1013.9 mb 0.00 in0.0 mm 0.00 in0.0 mm 0.00 in0.0 mm
12:23 AM 73.2°F22.9°C 66.7°F19.3°C 80% 1.2 mph SW1.9 kmh SW 3.0 mph4.8 kmh 29.94 in1013.9 mb 0.00 in0.0 mm 0.00 in0.0 mm 0.00 in0.0 mm
12:28 AM 72.9°F22.7°C 66.7°F19.3°C 81% 1.0 mph SW1.6 kmh SW 3.0 mph4.8 kmh 29.94 in1013.9 mb 0.00 in0.0 mm 0.00 in0.0 mm 0.00 in0.0 mm
12:33 AM 72.5°F22.5°C 66.8°F19.3°C 82% 1.0 mph SW1.6 kmh SW 3.0 mph4.8 kmh 29.94 in1013.9 mb 0.00 in0.0 mm 0.00 in0.0 mm 0.00 in0.0 mm
12:38 AM 72.1°F22.3°C 67.0°F19.4°C 84% 1.0 mph SW1.6 kmh SW 3.0 mph4.8 kmh 29.94 in1013.9 mb 0.00 in0.0 mm 0.00 in0.0 mm 0.00 in0.0 mm
12:43 AM 71.8°F22.1°C 66.7°F19.3°C 84% Calm Calm 1.0 mph1.6 kmh 29.94 in1013.9 mb 0.00 in0.0 mm 0.00 in0.0 mm 0.00 in0.0 mm
12:48 AM 71.7°F22.1°C 66.3°F19.1°C 83% Calm Calm 1.0 mph1.6 kmh 29.93 in1013.5 mb 0.00 in0.0 mm 0.00 in0.0 mm 0.00 in0.0 mm
12:53 AM 71.7°F22.1°C 66.0°F18.9°C 82% Calm Calm 1.0 mph1.6 kmh 29.93 in1013.5 mb 0.00 in0.0 mm 0.00 in0.0 mm 0.00 in0.0 mm
12:58 AM 71.8°F22.1°C 66.1°F18.9°C 82% Calm Calm 1.0 mph1.6 kmh 29.93 in1013.5 mb 0.00 in0.0 mm 0.00 in0.0 mm 0.00 in0.0 mm
01:03 AM 71.8°F22.1°C 65.7°F18.7°C 81% Calm Calm 1.0 mph1.6 kmh 29.93 in1013.5 mb 0.00 in0.0 mm 0.00 in0.0 mm 0.00 in0.0 mm
01:08 AM 71.9°F22.2°C 65.8°F18.8°C 81% Calm Calm 1.0 mph1.6 kmh 29.93 in1013.5 mb 0.00 in0.0 mm 0.00 in0.0 mm 0.00 in0.0 mm
01:13 AM 72.0°F22.2°C 65.9°F18.8°C 81% 1.0 mph SW1.6 kmh SW 1.0 mph1.6 kmh 29.93 in1013.5 mb 0.00 in0.0 mm 0.00 in0.0 mm 0.00 in0.0 mm
01:18 AM 72.2°F22.3°C 65.8°F18.8°C 80% 1.6 mph SW2.6 kmh SW 2.0 mph3.2 kmh 29.93 in1013.5 mb 0.00 in0.0 mm 0.00 in0.0 mm 0.00 in0.0 mm
01:23 AM 72.3°F22.4°C 65.9°F18.8°C 80% 1.5 mph SW2.4 kmh SW 3.0 mph4.8 kmh 29.93 in1013.5 mb 0.00 in0.0 mm 0.00 in0.0 mm 0.00 in0.0 mm
01:28 AM 72.3°F22.4°C 65.4°F18.6°C 79% Calm Calm 3.0 mph4.8 kmh 29.92 in1013.2 mb 0.00 in0.0 mm 0.00 in0.0 mm 0.00 in0.0 mm
01:33 AM 72.1°F22.3°C 65.6°F18.7°C 80% Calm Calm 3.0 mph4.8 kmh 29.93 in1013.5 mb 0.00 in0.0 mm 0.00 in0.0 mm 0.00 in0.0 mm
01:38 AM 72.0°F22.2°C 65.5°F18.6°C 80% 1.0 mph SW1.6 kmh SW 3.0 mph4.8 kmh 29.92 in1013.2 mb 0.00 in0.0 mm 0.00 in0.0 mm 0.00 in0.0 mm
01:43 AM 71.9°F22.2°C 65.4°F18.6°C 80% Calm Calm 1.0 mph1.6 kmh 29.92 in1013.2 mb 0.00 in0.0 mm 0.00 in0.0 mm 0.00 in0.0 mm
01:48 AM 71.7°F22.1°C 65.6°F18.7°C 81% Calm Calm 1.0 mph1.6 kmh 29.92 in1013.2 mb 0.00 in0.0 mm 0.00 in0.0 mm 0.00 in0.0 mm
01:53 AM 71.5°F21.9°C 65.4°F18.6°C 81% Calm Calm 1.0 mph1.6 kmh 29.92 in1013.2 mb 0.00 in0.0 mm 0.00 in0.0 mm 0.00 in0.0 mm
01:58 AM 71.6°F22.0°C 65.5°F18.6°C 81% 1.0 mph SW1.6 kmh SW 1.0 mph1.6 kmh 29.92 in1013.2 mb 0.00 in0.0 mm 0.00 in0.0 mm 0.00 in0.0 mm
02:03 AM 71.6°F22.0°C 65.5°F18.6°C 81% Calm Calm 1.0 mph1.6 kmh 29.91 in1012.9 mb 0.00 in0.0 mm 0.00 in0.0 mm 0.00 in0.0 mm
02:08 AM 71.5°F21.9°C 65.4°F18.6°C 81% 1.0 mph SW1.6 kmh SW 1.0 mph1.6 kmh 29.91 in1012.9 mb 0.00 in0.0 mm 0.00 in0.0 mm 0.00 in0.0 mm
02:13 AM 71.4°F21.9°C 65.7°F18.7°C 82% Calm Calm 1.0 mph1.6 kmh 29.91 in1012.9 mb 0.00 in0.0 mm 0.00 in0.0 mm 0.00 in0.0 mm
02:18 AM 71.2°F21.8°C 65.5°F18.6°C 82% Calm Calm 1.0 mph1.6 kmh 29.91 in1012.9 mb 0.00 in0.0 mm 0.00 in0.0 mm 0.00 in0.0 mm
02:23 AM 71.2°F21.8°C 65.5°F18.6°C 82% Calm Calm 1.0 mph1.6 kmh 29.90 in1012.5 mb 0.00 in0.0 mm 0.00 in0.0 mm 0.00 in0.0 mm
02:28 AM 71.4°F21.9°C 65.3°F18.5°C 81% Calm Calm 1.0 mph1.6 kmh 29.90 in1012.5 mb 0.00 in0.0 mm 0.00 in0.0 mm 0.00 in0.0 mm
02:33 AM 71.5°F21.9°C 65.4°F18.6°C 81% 1.0 mph SW1.6 kmh SW 1.0 mph1.6 kmh 29.90 in1012.5 mb 0.00 in0.0 mm 0.00 in0.0 mm 0.00 in0.0 mm
02:38 AM 71.5°F21.9°C 65.4°F18.6°C 81% 1.0 mph SW1.6 kmh SW 1.0 mph1.6 kmh 29.90 in1012.5 mb 0.00 in0.0 mm 0.00 in0.0 mm 0.00 in0.0 mm
02:43 AM 71.4°F21.9°C 65.3°F18.5°C 81% 1.0 mph SW1.6 kmh SW 1.0 mph1.6 kmh 29.90 in1012.5 mb 0.00 in0.0 mm 0.00 in0.0 mm 0.00 in0.0 mm
02:48 AM 71.2°F21.8°C 65.5°F18.6°C 82% Calm Calm 1.0 mph1.6 kmh 29.90 in1012.5 mb 0.00 in0.0 mm 0.00 in0.0 mm 0.00 in0.0 mm
02:53 AM 71.0°F21.7°C 65.3°F18.5°C 82% 1.1 mph SW1.8 kmh SW 3.0 mph4.8 kmh 29.90 in1012.5 mb 0.00 in0.0 mm 0.00 in0.0 mm 0.00 in0.0 mm
02:58 AM 70.9°F21.6°C 65.2°F18.4°C 82% 1.5 mph SW2.4 kmh SW 3.0 mph4.8 kmh 29.90 in1012.5 mb 0.00 in0.0 mm 0.00 in0.0 mm 0.00 in0.0 mm
03:03 AM 71.1°F21.7°C 65.4°F18.6°C 82% 1.8 mph SW2.9 kmh SW 4.0 mph6.4 kmh 29.89 in1012.2 mb 0.00 in0.0 mm 0.00 in0.0 mm 0.00 in0.0 mm
03:07 AM 71.3°F21.8°C 65.2°F18.4°C 81% 1.1 mph SW1.8 kmh SW 4.0 mph6.4 kmh 29.89 in1012.2 mb 0.00 in0.0 mm 0.00 in0.0 mm 0.00 in0.0 mm
03:12 AM 71.3°F21.8°C 65.2°F18.4°C 81% 1.5 mph SW2.4 kmh SW 4.0 mph6.4 kmh 29.89 in1012.2 mb 0.00 in0.0 mm 0.00 in0.0 mm 0.00 in0.0 mm
03:17 AM 71.1°F21.7°C 65.3°F18.5°C 82% 1.4 mph SW2.3 kmh SW 4.0 mph6.4 kmh 29.89 in1012.2 mb 0.00 in0.0 mm 0.00 in0.0 mm 0.00 in0.0 mm
03:22 AM 70.8°F21.6°C 65.0°F18.3°C 82% 1.0 mph SW1.6 kmh SW 3.0 mph4.8 kmh 29.89 in1012.2 mb 0.00 in0.0 mm 0.00 in0.0 mm 0.00 in0.0 mm
03:27 AM 70.6°F21.4°C 65.2°F18.4°C 83% Calm Calm 3.0 mph4.8 kmh 29.89 in1012.2 mb 0.00 in0.0 mm 0.00 in0.0 mm 0.00 in0.0 mm
03:32 AM 70.3°F21.3°C 64.9°F18.3°C 83% 1.4 mph SW2.3 kmh SW 2.0 mph3.2 kmh 29.89 in1012.2 mb 0.00 in0.0 mm 0.00 in0.0 mm 0.00 in0.0 mm
03:37 AM 70.3°F21.3°C 64.9°F18.3°C 83% 1.2 mph SW1.9 kmh SW 2.0 mph3.2 kmh 29.89 in1012.2 mb 0.00 in0.0 mm 0.00 in0.0 mm 0.00 in0.0 mm
03:42 AM 70.4°F21.3°C 65.0°F18.3°C 83% 1.2 mph SW1.9 kmh SW 3.0 mph4.8 kmh 29.88 in1011.9 mb 0.00 in0.0 mm 0.00 in0.0 mm 0.00 in0.0 mm
03:47 AM 70.3°F21.3°C 64.9°F18.3°C 83% 1.2 mph SW1.9 kmh SW 3.0 mph4.8 kmh 29.88 in1011.9 mb 0.00 in0.0 mm 0.00 in0.0 mm 0.00 in0.0 mm
03:52 AM 70.3°F21.3°C 64.9°F18.3°C 83% 1.5 mph SW2.4 kmh SW 3.0 mph4.8 kmh 29.88 in1011.9 mb 0.00 in0.0 mm 0.00 in0.0 mm 0.00 in0.0 mm
03:57 AM 70.5°F21.4°C 65.1°F18.4°C 83% 1.0 mph SW1.6 kmh SW 3.0 mph4.8 kmh 29.88 in1011.9 mb 0.00 in0.0 mm 0.00 in0.0 mm 0.00 in0.0 mm
04:02 AM 70.5°F21.4°C 65.1°F18.4°C 83% 1.3 mph SW2.1 kmh SW 3.0 mph4.8 kmh 29.88 in1011.9 mb 0.00 in0.0 mm 0.00 in0.0 mm 0.00 in0.0 mm
04:07 AM 70.5°F21.4°C 64.7°F18.2°C 82% 1.0 mph SW1.6 kmh SW 3.0 mph4.8 kmh 29.88 in1011.9 mb 0.00 in0.0 mm 0.00 in0.0 mm 0.00 in0.0 mm
04:12 AM 70.4°F21.3°C 65.0°F18.3°C 83% 1.0 mph SW1.6 kmh SW 2.0 mph3.2 kmh 29.88 in1011.9 mb 0.00 in0.0 mm 0.00 in0.0 mm 0.00 in0.0 mm
04:17 AM 70.3°F21.3°C 64.9°F18.3°C 83% 1.0 mph SW1.6 kmh SW 2.0 mph3.2 kmh 29.88 in1011.9 mb 0.00 in0.0 mm 0.00 in0.0 mm 0.00 in0.0 mm
04:22 AM 70.2°F21.2°C 64.8°F18.2°C 83% 1.0 mph SW1.6 kmh SW 2.0 mph3.2 kmh 29.88 in1011.9 mb 0.00 in0.0 mm 0.00 in0.0 mm 0.00 in0.0 mm
04:27 AM 70.1°F21.2°C 64.7°F18.2°C 83% Calm Calm 2.0 mph3.2 kmh 29.87 in1011.5 mb 0.00 in0.0 mm 0.00 in0.0 mm 0.00 in0.0 mm
04:32 AM 70.0°F21.1°C 64.6°F18.1°C 83% 1.0 mph SW1.6 kmh SW 2.0 mph3.2 kmh 29.87 in1011.5 mb 0.00 in0.0 mm 0.00 in0.0 mm 0.00 in0.0 mm
04:37 AM 70.1°F21.2°C 64.7°F18.2°C 83% 1.0 mph SW1.6 kmh SW 2.0 mph3.2 kmh 29.87 in1011.5 mb 0.00 in0.0 mm 0.00 in0.0 mm 0.00 in0.0 mm
04:42 AM 70.3°F21.3°C 64.9°F18.3°C 83% 1.5 mph SW2.4 kmh SW 2.0 mph3.2 kmh 29.87 in1011.5 mb 0.00 in0.0 mm 0.00 in0.0 mm 0.00 in0.0 mm
04:47 AM 70.5°F21.4°C 64.8°F18.2°C 82% 1.0 mph SW1.6 kmh SW 2.0 mph3.2 kmh 29.87 in1011.5 mb 0.00 in0.0 mm 0.00 in0.0 mm 0.00 in0.0 mm
04:52 AM 70.6°F21.4°C 64.9°F18.3°C 82% 1.4 mph SW2.3 kmh SW 2.0 mph3.2 kmh 29.87 in1011.5 mb 0.00 in0.0 mm 0.00 in0.0 mm 0.00 in0.0 mm
04:57 AM 70.7°F21.5°C 65.0°F18.3°C 82% 1.7 mph SW2.7 kmh SW 3.0 mph4.8 kmh 29.87 in1011.5 mb 0.00 in0.0 mm 0.00 in0.0 mm 0.00 in0.0 mm
05:02 AM 70.5°F21.4°C 64.8°F18.2°C 82% 1.2 mph SW1.9 kmh SW 3.0 mph4.8 kmh 29.87 in1011.5 mb 0.00 in0.0 mm 0.00 in0.0 mm 0.00 in0.0 mm
05:07 AM 70.3°F21.3°C 64.6°F18.1°C 82% 1.6 mph SW2.6 kmh SW 3.0 mph4.8 kmh 29.87 in1011.5 mb 0.00 in0.0 mm 0.00 in0.0 mm 0.00 in0.0 mm
05:12 AM 70.1°F21.2°C 64.7°F18.2°C 83% 1.0 mph SW1.6 kmh SW 3.0 mph4.8 kmh 29.87 in1011.5 mb 0.00 in0.0 mm 0.00 in0.0 mm 0.00 in0.0 mm
05:17 AM 69.7°F20.9°C 64.7°F18.2°C 84% Calm Calm 3.0 mph4.8 kmh 29.87 in1011.5 mb 0.00 in0.0 mm 0.00 in0.0 mm 0.00 in0.0 mm
05:22 AM 69.3°F20.7°C 64.6°F18.1°C 85% 1.0 mph S1.6 kmh S 3.0 mph4.8 kmh 29.87 in1011.5 mb 0.00 in0.0 mm 0.00 in0.0 mm 0.00 in0.0 mm
05:27 AM 68.9°F20.5°C 64.2°F17.9°C 85% Calm Calm 3.0 mph4.8 kmh 29.87 in1011.5 mb 0.00 in0.0 mm 0.00 in0.0 mm 0.00 in0.0 mm
05:32 AM 68.5°F20.3°C 64.2°F17.9°C 86% 1.0 mph SW1.6 kmh SW 1.0 mph1.6 kmh 29.88 in1011.9 mb 0.00 in0.0 mm 0.00 in0.0 mm 0.00 in0.0 mm
05:37 AM 68.2°F20.1°C 64.2°F17.9°C 87% 1.5 mph SW2.4 kmh SW 2.0 mph3.2 kmh 29.88 in1011.9 mb 0.00 in0.0 mm 0.00 in0.0 mm 0.00 in0.0 mm
05:42 AM 67.9°F19.9°C 64.2°F17.9°C 88% Calm Calm 2.0 mph3.2 kmh 29.88 in1011.9 mb 0.00 in0.0 mm 0.00 in0.0 mm 0.00 in0.0 mm
05:47 AM 67.5°F19.7°C 64.1°F17.8°C 89% 1.0 mph SW1.6 kmh SW 2.0 mph3.2 kmh 29.87 in1011.5 mb 0.00 in0.0 mm 0.00 in0.0 mm 0.00 in0.0 mm
05:52 AM 67.4°F19.7°C 64.0°F17.8°C 89% 1.3 mph SW2.1 kmh SW 3.0 mph4.8 kmh 29.87 in1011.5 mb 0.00 in0.0 mm 0.00 in0.0 mm 0.00 in0.0 mm
05:57 AM 67.6°F19.8°C 64.2°F17.9°C 89% 1.2 mph S1.9 kmh S 3.0 mph4.8 kmh 29.87 in1011.5 mb 0.00 in0.0 mm 0.00 in0.0 mm 0.00 in0.0 mm
06:02 AM 67.8°F19.9°C 64.4°F18.0°C 89% 1.7 mph SW2.7 kmh SW 3.0 mph4.8 kmh 29.87 in1011.5 mb 0.00 in0.0 mm 0.00 in0.0 mm 0.00 in0.0 mm
06:07 AM 68.1°F20.1°C 64.4°F18.0°C 88% 1.0 mph SW1.6 kmh SW 3.0 mph4.8 kmh 29.87 in1011.5 mb 0.00 in0.0 mm 0.00 in0.0 mm 0.00 in0.0 mm
06:12 AM 68.3°F20.2°C 64.6°F18.1°C 88% 1.5 mph SW2.4 kmh SW 3.0 mph4.8 kmh 29.88 in1011.9 mb 0.00 in0.0 mm 0.00 in0.0 mm 0.00 in0.0 mm
06:17 AM 68.4°F20.2°C 64.4°F18.0°C 87% 1.7 mph SW2.7 kmh SW 3.0 mph4.8 kmh 29.88 in1011.9 mb 0.00 in0.0 mm 0.00 in0.0 mm 0.00 in0.0 mm
06:22 AM 68.5°F20.3°C 64.8°F18.2°C 88% 1.8 mph SW2.9 kmh SW 6.0 mph9.7 kmh 29.88 in1011.9 mb 0.00 in0.0 mm 0.00 in0.0 mm 0.00 in0.0 mm
06:27 AM 68.5°F20.3°C 64.8°F18.2°C 88% 1.3 mph SW2.1 kmh SW 6.0 mph9.7 kmh 29.88 in1011.9 mb 0.00 in0.0 mm 0.00 in0.0 mm 0.00 in0.0 mm
06:32 AM 68.4°F20.2°C 64.7°F18.2°C 88% 1.2 mph SW1.9 kmh SW 6.0 mph9.7 kmh 29.88 in1011.9 mb 0.00 in0.0 mm 0.00 in0.0 mm 0.00 in0.0 mm
06:37 AM 68.2°F20.1°C 64.5°F18.1°C 88% Calm Calm 6.0 mph9.7 kmh 29.87 in1011.5 mb 0.00 in0.0 mm 0.00 in0.0 mm 0.00 in0.0 mm
06:42 AM 68.0°F20.0°C 64.3°F17.9°C 88% Calm Calm 3.0 mph4.8 kmh 29.87 in1011.5 mb 0.00 in0.0 mm 0.00 in0.0 mm 0.00 in0.0 mm
06:47 AM 67.7°F19.8°C 64.3°F17.9°C 89% Calm Calm 2.0 mph3.2 kmh 29.87 in1011.5 mb 0.00 in0.0 mm 0.00 in0.0 mm 0.00 in0.0 mm
06:52 AM 67.4°F19.7°C 64.0°F17.8°C 89% Calm Calm 2.0 mph3.2 kmh 29.87 in1011.5 mb 0.00 in0.0 mm 0.00 in0.0 mm 0.00 in0.0 mm
06:57 AM 67.3°F19.6°C 64.2°F17.9°C 90% 1.0 mph SW1.6 kmh SW 1.0 mph1.6 kmh 29.87 in1011.5 mb 0.00 in0.0 mm 0.00 in0.0 mm 0.00 in0.0 mm
07:02 AM 67.2°F19.6°C 64.1°F17.8°C 90% 1.0 mph SW1.6 kmh SW 1.0 mph1.6 kmh 29.88 in1011.9 mb 0.00 in0.0 mm 0.00 in0.0 mm 0.00 in0.0 mm
07:07 AM 67.3°F19.6°C 64.6°F18.1°C 91% Calm Calm 1.0 mph1.6 kmh 29.88 in1011.9 mb 0.00 in0.0 mm 0.00 in0.0 mm 0.00 in0.0 mm
07:12 AM 67.3°F19.6°C 64.6°F18.1°C 91% 1.0 mph SW1.6 kmh SW 1.0 mph1.6 kmh 29.88 in1011.9 mb 0.00 in0.0 mm 0.00 in0.0 mm 0.00 in0.0 mm
07:17 AM 67.4°F19.7°C 64.3°F17.9°C 90% 1.0 mph SW1.6 kmh SW 1.0 mph1.6 kmh 29.88 in1011.9 mb 0.00 in0.0 mm 0.00 in0.0 mm 0.00 in0.0 mm
07:22 AM 67.5°F19.7°C 64.8°F18.2°C 91% 1.6 mph SW2.6 kmh SW 5.0 mph8.0 kmh 29.88 in1011.9 mb 0.00 in0.0 mm 0.00 in0.0 mm 0.00 in0.0 mm
07:27 AM 67.8°F19.9°C 65.1°F18.4°C 91% 1.3 mph SW2.1 kmh SW 5.0 mph8.0 kmh 29.88 in1011.9 mb 0.00 in0.0 mm 0.00 in0.0 mm 0.00 in0.0 mm
07:32 AM 68.0°F20.0°C 65.0°F18.3°C 90% 1.3 mph SW2.1 kmh SW 5.0 mph8.0 kmh 29.88 in1011.9 mb 0.00 in0.0 mm 0.00 in0.0 mm 0.00 in0.0 mm
07:37 AM 68.0°F20.0°C 65.0°F18.3°C 90% 1.3 mph SW2.1 kmh SW 5.0 mph8.0 kmh 29.89 in1012.2 mb 0.00 in0.0 mm 0.00 in0.0 mm 0.00 in0.0 mm
07:42 AM 68.0°F20.0°C 64.9°F18.3°C 90% 1.8 mph SW2.9 kmh SW 5.0 mph8.0 kmh 29.89 in1012.2 mb 0.00 in0.0 mm 0.00 in0.0 mm 0.00 in0.0 mm
07:47 AM 68.1°F20.1°C 65.0°F18.3°C 90% 1.4 mph SW2.3 kmh SW 5.0 mph8.0 kmh 29.90 in1012.5 mb 0.00 in0.0 mm 0.00 in0.0 mm 0.00 in0.0 mm
07:52 AM 68.0°F20.0°C 64.9°F18.3°C 90% 1.7 mph SW2.7 kmh SW 4.0 mph6.4 kmh 29.90 in1012.5 mb 0.00 in0.0 mm 0.00 in0.0 mm 0.00 in0.0 mm
07:57 AM 67.8°F19.9°C 64.7°F18.2°C 90% 1.7 mph SW2.7 kmh SW 4.0 mph6.4 kmh 29.90 in1012.5 mb 0.00 in0.0 mm 0.00 in0.0 mm 0.00 in0.0 mm
08:02 AM 67.7°F19.8°C 65.0°F18.3°C 91% 1.0 mph SW1.6 kmh SW 4.0 mph6.4 kmh 29.90 in1012.5 mb 0.00 in0.0 mm 0.00 in0.0 mm 0.00 in0.0 mm
08:06 AM 68.0°F20.0°C 65.2°F18.4°C 91% 1.9 mph SW3.1 kmh SW 4.0 mph6.4 kmh 29.90 in1012.5 mb 0.00 in0.0 mm 0.00 in0.0 mm 0.00 in0.0 mm
08:11 AM 68.3°F20.2°C 65.5°F18.6°C 91% 1.0 mph SW1.6 kmh SW 4.0 mph6.4 kmh 29.90 in1012.5 mb 0.00 in0.0 mm 0.00 in0.0 mm 0.00 in0.0 mm
08:16 AM 68.5°F20.3°C 65.4°F18.6°C 90% 2.0 mph SW3.2 kmh SW 4.0 mph6.4 kmh 29.90 in1012.5 mb 0.00 in0.0 mm 0.00 in0.0 mm 0.00 in0.0 mm
08:21 AM 68.8°F20.4°C 65.7°F18.7°C 90% 1.6 mph SW2.6 kmh SW 4.0 mph6.4 kmh 29.91 in1012.9 mb 0.00 in0.0 mm 0.00 in0.0 mm 0.00 in0.0 mm
08:26 AM 69.1°F20.6°C 66.0°F18.9°C 90% 1.7 mph SW2.7 kmh SW 4.0 mph6.4 kmh 29.91 in1012.9 mb 0.00 in0.0 mm 0.00 in0.0 mm 0.00 in0.0 mm
08:31 AM 69.7°F20.9°C 66.6°F19.2°C 90% 1.9 mph WSW3.1 kmh WSW 4.0 mph6.4 kmh 29.91 in1012.9 mb 0.00 in0.0 mm 0.00 in0.0 mm 0.00 in0.0 mm
08:36 AM 70.1°F21.2°C 66.7°F19.3°C 89% 2.1 mph WSW3.4 kmh WSW 5.0 mph8.0 kmh 29.91 in1012.9 mb 0.00 in0.0 mm 0.00 in0.0 mm 0.00 in0.0 mm
08:41 AM 70.5°F21.4°C 67.1°F19.5°C 89% 1.5 mph WSW2.4 kmh WSW 5.0 mph8.0 kmh 29.91 in1012.9 mb 0.00 in0.0 mm 0.00 in0.0 mm 0.00 in0.0 mm
08:46 AM 71.0°F21.7°C 67.3°F19.6°C 88% 1.0 mph SW1.6 kmh SW 5.0 mph8.0 kmh 29.91 in1012.9 mb 0.00 in0.0 mm 0.00 in0.0 mm 0.00 in0.0 mm
08:51 AM 71.4°F21.9°C 67.3°F19.6°C 87% 2.5 mph WSW4.0 kmh WSW 6.0 mph9.7 kmh 29.91 in1012.9 mb 0.00 in0.0 mm 0.00 in0.0 mm 0.00 in0.0 mm
08:56 AM 71.8°F22.1°C 68.1°F20.1°C 88% 1.0 mph SW1.6 kmh SW 6.0 mph9.7 kmh 29.91 in1012.9 mb 0.00 in0.0 mm 0.00 in0.0 mm 0.00 in0.0 mm
09:01 AM 72.4°F22.4°C 68.0°F20.0°C 86% 2.6 mph SW4.2 kmh SW 8.0 mph12.9 kmh 29.91 in1012.9 mb 0.00 in0.0 mm 0.00 in0.0 mm 0.00 in0.0 mm
09:06 AM 72.6°F22.6°C 68.2°F20.1°C 86% 1.7 mph SW2.7 kmh SW 8.0 mph12.9 kmh 29.91 in1012.9 mb 0.00 in0.0 mm 0.00 in0.0 mm 0.00 in0.0 mm
09:11 AM 73.0°F22.8°C 68.6°F20.3°C 86% 1.0 mph SW1.6 kmh SW 8.0 mph12.9 kmh 29.91 in1012.9 mb 0.00 in0.0 mm 0.00 in0.0 mm 0.00 in0.0 mm
09:16 AM 73.5°F23.1°C 68.7°F20.4°C 85% 1.7 mph SW2.7 kmh SW 7.0 mph11.3 kmh 29.91 in1012.9 mb 0.00 in0.0 mm 0.00 in0.0 mm 0.00 in0.0 mm
09:21 AM 73.5°F23.1°C 68.7°F20.4°C 85% 1.0 mph SE1.6 kmh SE 8.0 mph12.9 kmh 29.91 in1012.9 mb 0.00 in0.0 mm 0.00 in0.0 mm 0.00 in0.0 mm
09:26 AM 74.1°F23.4°C 69.3°F20.7°C 85% 1.3 mph SW2.1 kmh SW 8.0 mph12.9 kmh 29.91 in1012.9 mb 0.00 in0.0 mm 0.00 in0.0 mm 0.00 in0.0 mm
09:31 AM 74.7°F23.7°C 69.6°F20.9°C 84% 3.6 mph SW5.8 kmh SW 8.0 mph12.9 kmh 29.91 in1012.9 mb 0.00 in0.0 mm 0.00 in0.0 mm 0.00 in0.0 mm
09:36 AM 75.4°F24.1°C 70.6°F21.4°C 85% 3.0 mph SW4.8 kmh SW 8.0 mph12.9 kmh 29.91 in1012.9 mb 0.00 in0.0 mm 0.00 in0.0 mm 0.00 in0.0 mm
09:41 AM 76.2°F24.6°C 70.4°F21.3°C 82% 2.1 mph SW3.4 kmh SW 7.0 mph11.3 kmh 29.91 in1012.9 mb 0.00 in0.0 mm 0.00 in0.0 mm 0.00 in0.0 mm
09:46 AM 76.9°F24.9°C 70.7°F21.5°C 81% 2.7 mph SW4.3 kmh SW 7.0 mph11.3 kmh 29.91 in1012.9 mb 0.00 in0.0 mm 0.00 in0.0 mm 0.00 in0.0 mm
09:51 AM 77.0°F25.0°C 70.5°F21.4°C 80% 2.4 mph SW3.9 kmh SW 9.0 mph14.5 kmh 29.91 in1012.9 mb 0.00 in0.0 mm 0.00 in0.0 mm 0.00 in0.0 mm
09:56 AM 77.1°F25.1°C 70.2°F21.2°C 79% 2.7 mph SW4.3 kmh SW 9.0 mph14.5 kmh 29.91 in1012.9 mb 0.00 in0.0 mm 0.00 in0.0 mm 0.00 in0.0 mm
10:01 AM 77.2°F25.1°C 70.7°F21.5°C 80% 2.9 mph WSW4.7 kmh WSW 9.0 mph14.5 kmh 29.91 in1012.9 mb 0.00 in0.0 mm 0.00 in0.0 mm 0.00 in0.0 mm
10:06 AM 77.3°F25.2°C 70.4°F21.3°C 79% 3.0 mph WSW4.8 kmh WSW 9.0 mph14.5 kmh 29.91 in1012.9 mb 0.00 in0.0 mm 0.00 in0.0 mm 0.00 in0.0 mm
10:11 AM 77.5°F25.3°C 69.9°F21.1°C 77% 4.0 mph SW6.4 kmh SW 9.0 mph14.5 kmh 29.91 in1012.9 mb 0.00 in0.0 mm 0.00 in0.0 mm 0.00 in0.0 mm
10:16 AM 77.8°F25.4°C 69.8°F21.0°C 76% 3.1 mph WSW5.0 kmh WSW 10.0 mph16.1 kmh 29.91 in1012.9 mb 0.00 in0.0 mm 0.00 in0.0 mm 0.00 in0.0 mm
10:21 AM 78.3°F25.7°C 69.3°F20.7°C 74% 3.3 mph SW5.3 kmh SW 13.0 mph20.9 kmh 29.91 in1012.9 mb 0.00 in0.0 mm 0.00 in0.0 mm 0.00 in0.0 mm
10:26 AM 78.6°F25.9°C 68.8°F20.4°C 72% 3.4 mph SW5.5 kmh SW 13.0 mph20.9 kmh 29.91 in1012.9 mb 0.00 in0.0 mm 0.00 in0.0 mm 0.00 in0.0 mm
10:31 AM 78.8°F26.0°C 69.2°F20.7°C 72% 3.8 mph SW6.1 kmh SW 13.0 mph20.9 kmh 29.90 in1012.5 mb 0.00 in0.0 mm 0.00 in0.0 mm 0.00 in0.0 mm
10:36 AM 78.6°F25.9°C 68.6°F20.3°C 71% 5.4 mph SW8.7 kmh SW 13.0 mph20.9 kmh 29.91 in1012.9 mb 0.00 in0.0 mm 0.00 in0.0 mm 0.00 in0.0 mm
10:41 AM 78.5°F25.8°C 68.9°F20.5°C 72% 4.4 mph SW7.1 kmh SW 13.0 mph20.9 kmh 29.91 in1012.9 mb 0.00 in0.0 mm 0.00 in0.0 mm 0.00 in0.0 mm
10:46 AM 78.4°F25.8°C 69.2°F20.7°C 73% 5.6 mph SW9.0 kmh SW 13.0 mph20.9 kmh 29.91 in1012.9 mb 0.00 in0.0 mm 0.00 in0.0 mm 0.00 in0.0 mm
10:51 AM 78.6°F25.9°C 69.2°F20.7°C 73% 4.0 mph SW6.4 kmh SW 13.0 mph20.9 kmh 29.91 in1012.9 mb 0.00 in0.0 mm 0.00 in0.0 mm 0.00 in0.0 mm
10:56 AM 79.0°F26.1°C 69.4°F20.8°C 72% 4.2 mph SW6.8 kmh SW 12.0 mph19.3 kmh 29.91 in1012.9 mb 0.00 in0.0 mm 0.00 in0.0 mm 0.00 in0.0 mm
11:01 AM 79.4°F26.3°C 70.6°F21.4°C 74% 3.1 mph SW5.0 kmh SW 12.0 mph19.3 kmh 29.91 in1012.9 mb 0.00 in0.0 mm 0.00 in0.0 mm 0.00 in0.0 mm
11:06 AM 79.4°F26.3°C 69.6°F20.9°C 72% 4.6 mph SW7.4 kmh SW 12.0 mph19.3 kmh 29.91 in1012.9 mb 0.00 in0.0 mm 0.00 in0.0 mm 0.00 in0.0 mm
11:11 AM 79.3°F26.3°C 69.7°F20.9°C 72% 3.5 mph SSW5.6 kmh SSW 12.0 mph19.3 kmh 29.91 in1012.9 mb 0.00 in0.0 mm 0.00 in0.0 mm 0.00 in0.0 mm
11:16 AM 79.8°F26.6°C 70.6°F21.4°C 73% Calm Calm 12.0 mph19.3 kmh 29.91 in1012.9 mb 0.00 in0.0 mm 0.00 in0.0 mm 0.00 in0.0 mm
11:21 AM 79.9°F26.6°C 70.3°F21.3°C 72% 2.9 mph WSW4.7 kmh WSW 13.0 mph20.9 kmh 29.91 in1012.9 mb 0.00 in0.0 mm 0.00 in0.0 mm 0.00 in0.0 mm
11:26 AM 80.1°F26.7°C 69.4°F20.8°C 70% 4.8 mph WSW7.7 kmh WSW 13.0 mph20.9 kmh 29.91 in1012.9 mb 0.00 in0.0 mm 0.00 in0.0 mm 0.00 in0.0 mm
11:31 AM 79.5°F26.4°C 69.1°F20.6°C 70% 5.0 mph SW8.0 kmh SW 15.0 mph24.1 kmh 29.91 in1012.9 mb 0.00 in0.0 mm 0.00 in0.0 mm 0.00 in0.0 mm
11:36 AM 79.7°F26.5°C 69.3°F20.7°C 70% 3.8 mph SW6.1 kmh SW 15.0 mph24.1 kmh 29.91 in1012.9 mb 0.00 in0.0 mm 0.00 in0.0 mm 0.00 in0.0 mm
11:41 AM 79.7°F26.5°C 69.0°F20.6°C 70% 3.9 mph SSW6.3 kmh SSW 15.0 mph24.1 kmh 29.91 in1012.9 mb 0.00 in0.0 mm 0.00 in0.0 mm 0.00 in0.0 mm
11:46 AM 79.7°F26.5°C 69.7°F20.9°C 71% 2.1 mph SSW3.4 kmh SSW 15.0 mph24.1 kmh 29.91 in1012.9 mb 0.00 in0.0 mm 0.00 in0.0 mm 0.00 in0.0 mm
11:51 AM 80.3°F26.8°C 70.3°F21.3°C 71% 4.8 mph SW7.7 kmh SW 11.0 mph17.7 kmh 29.90 in1012.5 mb 0.00 in0.0 mm 0.00 in0.0 mm 0.00 in0.0 mm
11:56 AM 80.6°F27.0°C 69.3°F20.7°C 68% 2.9 mph W4.7 kmh W 10.0 mph16.1 kmh 29.91 in1012.9 mb 0.00 in0.0 mm 0.00 in0.0 mm 0.00 in0.0 mm
12:01 PM 80.5°F26.9°C 68.8°F20.4°C 67% 3.2 mph SW5.1 kmh SW 15.0 mph24.1 kmh 29.91 in1012.9 mb 0.00 in0.0 mm 0.00 in0.0 mm 0.00 in0.0 mm
12:06 PM 80.0°F26.7°C 68.1°F20.1°C 67% 3.5 mph SW5.6 kmh SW 15.0 mph24.1 kmh 29.90 in1012.5 mb 0.00 in0.0 mm 0.00 in0.0 mm 0.00 in0.0 mm
12:11 PM 79.4°F26.3°C 68.6°F20.3°C 69% 2.8 mph SW4.5 kmh SW 15.0 mph24.1 kmh 29.91 in1012.9 mb 0.00 in0.0 mm 0.00 in0.0 mm 0.00 in0.0 mm
12:16 PM 79.0°F26.1°C 68.2°F20.1°C 69% 5.7 mph SW9.2 kmh SW 13.0 mph20.9 kmh 29.90 in1012.5 mb 0.00 in0.0 mm 0.00 in0.0 mm 0.00 in0.0 mm
12:21 PM 79.1°F26.2°C 68.3°F20.2°C 69% 6.4 mph SW10.3 kmh SW 14.0 mph22.5 kmh 29.90 in1012.5 mb 0.00 in0.0 mm 0.00 in0.0 mm 0.00 in0.0 mm
12:26 PM 79.2°F26.2°C 68.8°F20.4°C 70% 3.7 mph WSW6.0 kmh WSW 14.0 mph22.5 kmh 29.90 in1012.5 mb 0.00 in0.0 mm 0.00 in0.0 mm 0.00 in0.0 mm
12:31 PM 79.6°F26.4°C 67.7°F19.8°C 67% 6.5 mph SW10.5 kmh SW 16.0 mph25.7 kmh 29.89 in1012.2 mb 0.00 in0.0 mm 0.00 in0.0 mm 0.00 in0.0 mm
12:36 PM 79.9°F26.6°C 68.6°F20.3°C 68% 3.4 mph SW5.5 kmh SW 16.0 mph25.7 kmh 29.89 in1012.2 mb 0.00 in0.0 mm 0.00 in0.0 mm 0.00 in0.0 mm
12:41 PM 80.0°F26.7°C 68.3°F20.2°C 67% 4.1 mph SW6.6 kmh SW 16.0 mph25.7 kmh 29.89 in1012.2 mb 0.00 in0.0 mm 0.00 in0.0 mm 0.00 in0.0 mm
12:46 PM 80.5°F26.9°C 68.3°F20.2°C 66% 2.7 mph SW4.3 kmh SW 16.0 mph25.7 kmh 29.89 in1012.2 mb 0.00 in0.0 mm 0.00 in0.0 mm 0.00 in0.0 mm
12:51 PM 80.6°F27.0°C 68.0°F20.0°C 65% 4.2 mph SW6.8 kmh SW 14.0 mph22.5 kmh 29.88 in1011.9 mb 0.00 in0.0 mm 0.00 in0.0 mm 0.00 in0.0 mm
12:56 PM 80.9°F27.2°C 68.7°F20.4°C 66% 2.8 mph SW4.5 kmh SW 14.0 mph22.5 kmh 29.88 in1011.9 mb 0.00 in0.0 mm 0.00 in0.0 mm 0.00 in0.0 mm
01:01 PM 81.0°F27.2°C 68.4°F20.2°C 65% 3.9 mph SW6.3 kmh SW 13.0 mph20.9 kmh 29.88 in1011.9 mb 0.00 in0.0 mm 0.00 in0.0 mm 0.00 in0.0 mm
01:06 PM 81.0°F27.2°C 68.1°F20.1°C 65% 5.1 mph WSW8.2 kmh WSW 13.0 mph20.9 kmh 29.88 in1011.9 mb 0.00 in0.0 mm 0.00 in0.0 mm 0.00 in0.0 mm
01:11 PM 81.2°F27.3°C 68.1°F20.1°C 64% 5.3 mph SW8.5 kmh SW 13.0 mph20.9 kmh 29.88 in1011.9 mb 0.00 in0.0 mm 0.00 in0.0 mm 0.00 in0.0 mm
01:16 PM 81.6°F27.6°C 69.8°F21.0°C 67% 3.6 mph SW5.8 kmh SW 13.0 mph20.9 kmh 29.88 in1011.9 mb 0.00 in0.0 mm 0.00 in0.0 mm 0.00 in0.0 mm
01:21 PM 81.8°F27.7°C 68.7°F20.4°C 64% 4.4 mph SW7.1 kmh SW 13.0 mph20.9 kmh 29.88 in1011.9 mb 0.00 in0.0 mm 0.00 in0.0 mm 0.00 in0.0 mm
01:26 PM 81.0°F27.2°C 68.1°F20.1°C 65% 3.8 mph SW6.1 kmh SW 13.0 mph20.9 kmh 29.87 in1011.5 mb 0.00 in0.0 mm 0.00 in0.0 mm 0.00 in0.0 mm
01:31 PM 80.9°F27.2°C 69.2°F20.7°C 67% 1.5 mph WSW2.4 kmh WSW 11.0 mph17.7 kmh 29.87 in1011.5 mb 0.00 in0.0 mm 0.00 in0.0 mm 0.00 in0.0 mm
01:36 PM 80.6°F27.0°C 68.2°F20.1°C 66% 3.0 mph SW4.8 kmh SW 11.0 mph17.7 kmh 29.87 in1011.5 mb 0.00 in0.0 mm 0.00 in0.0 mm 0.00 in0.0 mm
01:41 PM 80.1°F26.7°C 69.2°F20.7°C 69% 3.0 mph SW4.8 kmh SW 13.0 mph20.9 kmh 29.87 in1011.5 mb 0.00 in0.0 mm 0.00 in0.0 mm 0.00 in0.0 mm
01:46 PM 80.3°F26.8°C 70.3°F21.3°C 71% 2.2 mph SW3.5 kmh SW 13.0 mph20.9 kmh 29.86 in1011.2 mb 0.00 in0.0 mm 0.00 in0.0 mm 0.00 in0.0 mm
01:51 PM 80.5°F26.9°C 69.8°F21.0°C 70% 2.1 mph SSW3.4 kmh SSW 13.0 mph20.9 kmh 29.86 in1011.2 mb 0.00 in0.0 mm 0.00 in0.0 mm 0.00 in0.0 mm
01:57 PM 79.7°F26.5°C 69.7°F20.9°C 71% 4.2 mph SW6.8 kmh SW 13.0 mph20.9 kmh 29.86 in1011.2 mb 0.00 in0.0 mm 0.00 in0.0 mm 0.00 in0.0 mm
02:02 PM 77.7°F25.4°C 70.1°F21.2°C 77% 3.1 mph SSW5.0 kmh SSW 13.0 mph20.9 kmh 29.86 in1011.2 mb 0.03 in0.8 mm 0.03 in0.8 mm 0.03 in0.8 mm
02:05 PM 76.4°F24.7°C 70.6°F21.4°C 82% 4.2 mph SW6.8 kmh SW 13.0 mph20.9 kmh 29.86 in1011.2 mb 0.03 in0.8 mm 0.00 in0.0 mm 0.03 in0.8 mm
02:10 PM 76.5°F24.7°C 71.4°F21.9°C 84% 2.9 mph WSW4.7 kmh WSW 13.0 mph20.9 kmh 29.86 in1011.2 mb 0.03 in0.8 mm 0.00 in0.0 mm 0.03 in0.8 mm
02:15 PM 76.8°F24.9°C 71.0°F21.7°C 82% 3.9 mph SW6.3 kmh SW 12.0 mph19.3 kmh 29.86 in1011.2 mb 0.03 in0.8 mm 0.00 in0.0 mm 0.03 in0.8 mm
02:20 PM 77.3°F25.2°C 71.4°F21.9°C 82% 2.7 mph SW4.3 kmh SW 12.0 mph19.3 kmh 29.86 in1011.2 mb 0.03 in0.8 mm 0.00 in0.0 mm 0.03 in0.8 mm
02:25 PM 77.3°F25.2°C 70.8°F21.6°C 80% 4.6 mph SW7.4 kmh SW 11.0 mph17.7 kmh 29.86 in1011.2 mb 0.03 in0.8 mm 0.00 in0.0 mm 0.03 in0.8 mm
02:30 PM 77.0°F25.0°C 70.8°F21.6°C 81% 3.0 mph SW4.8 kmh SW 11.0 mph17.7 kmh 29.86 in1011.2 mb 0.03 in0.8 mm 0.00 in0.0 mm 0.03 in0.8 mm
02:35 PM 77.3°F25.2°C 71.4°F21.9°C 82% 3.3 mph SSW5.3 kmh SSW 11.0 mph17.7 kmh 29.86 in1011.2 mb 0.03 in0.8 mm 0.00 in0.0 mm 0.03 in0.8 mm
02:40 PM 78.0°F25.6°C 72.5°F22.5°C 83% 2.0 mph SSE3.2 kmh SSE 9.0 mph14.5 kmh 29.85 in1010.8 mb 0.03 in0.8 mm 0.00 in0.0 mm 0.03 in0.8 mm
02:45 PM 78.2°F25.7°C 72.0°F22.2°C 81% 2.6 mph SW4.2 kmh SW 8.0 mph12.9 kmh 29.85 in1010.8 mb 0.03 in0.8 mm 0.00 in0.0 mm 0.03 in0.8 mm
02:50 PM 78.5°F25.8°C 71.9°F22.2°C 80% 2.9 mph SSW4.7 kmh SSW 8.0 mph12.9 kmh 29.84 in1010.5 mb 0.03 in0.8 mm 0.00 in0.0 mm 0.03 in0.8 mm
02:55 PM 78.9°F26.1°C 71.6°F22.0°C 78% 2.3 mph S3.7 kmh S 8.0 mph12.9 kmh 29.84 in1010.5 mb 0.03 in0.8 mm 0.00 in0.0 mm 0.03 in0.8 mm
03:00 PM 79.4°F26.3°C 71.9°F22.2°C 78% 4.0 mph WSW6.4 kmh WSW 11.0 mph17.7 kmh 29.84 in1010.5 mb 0.00 in0.0 mm 0.00 in0.0 mm 0.03 in0.8 mm
03:05 PM 80.0°F26.7°C 70.0°F21.1°C 71% 4.9 mph WSW7.9 kmh WSW 13.0 mph20.9 kmh 29.84 in1010.5 mb 0.00 in0.0 mm 0.00 in0.0 mm 0.03 in0.8 mm
03:10 PM 80.5°F26.9°C 69.2°F20.7°C 68% 4.4 mph W7.1 kmh W 13.0 mph20.9 kmh 29.83 in1010.2 mb 0.00 in0.0 mm 0.00 in0.0 mm 0.03 in0.8 mm
03:15 PM 80.5°F26.9°C 67.9°F19.9°C 65% 6.3 mph WSW10.1 kmh WSW 18.0 mph29.0 kmh 29.83 in1010.2 mb 0.00 in0.0 mm 0.00 in0.0 mm 0.03 in0.8 mm
03:20 PM 80.6°F27.0°C 68.0°F20.0°C 65% 7.3 mph WSW11.7 kmh WSW 18.0 mph29.0 kmh 29.82 in1009.8 mb 0.00 in0.0 mm 0.00 in0.0 mm 0.03 in0.8 mm
03:25 PM 80.8°F27.1°C 67.9°F19.9°C 65% 7.1 mph WSW11.4 kmh WSW 18.0 mph29.0 kmh 29.82 in1009.8 mb 0.00 in0.0 mm 0.00 in0.0 mm 0.03 in0.8 mm
03:30 PM 80.7°F27.1°C 68.5°F20.3°C 66% 4.4 mph WSW7.1 kmh WSW 18.0 mph29.0 kmh 29.82 in1009.8 mb 0.00 in0.0 mm 0.00 in0.0 mm 0.03 in0.8 mm
03:35 PM 80.5°F26.9°C 68.8°F20.4°C 67% 4.9 mph WSW7.9 kmh WSW 18.0 mph29.0 kmh 29.82 in1009.8 mb 0.00 in0.0 mm 0.00 in0.0 mm 0.03 in0.8 mm
03:40 PM 81.1°F27.3°C 69.3°F20.7°C 67% 5.0 mph SW8.0 kmh SW 18.0 mph29.0 kmh 29.82 in1009.8 mb 0.00 in0.0 mm 0.00 in0.0 mm 0.03 in0.8 mm
03:46 PM 81.4°F27.4°C 68.9°F20.5°C 66% 4.2 mph SW6.8 kmh SW 18.0 mph29.0 kmh 29.81 in1009.5 mb 0.00 in0.0 mm 0.00 in0.0 mm 0.03 in0.8 mm
03:51 PM 81.8°F27.7°C 69.6°F20.9°C 66% 4.9 mph SW7.9 kmh SW 16.0 mph25.7 kmh 29.81 in1009.5 mb 0.00 in0.0 mm 0.00 in0.0 mm 0.03 in0.8 mm
03:56 PM 81.9°F27.7°C 69.0°F20.6°C 65% 3.3 mph SW5.3 kmh SW 14.0 mph22.5 kmh 29.80 in1009.1 mb 0.00 in0.0 mm 0.00 in0.0 mm 0.03 in0.8 mm
04:01 PM 81.7°F27.6°C 69.0°F20.6°C 65% 5.5 mph WSW8.9 kmh WSW 11.0 mph17.7 kmh 29.80 in1009.1 mb 0.00 in0.0 mm 0.00 in0.0 mm 0.03 in0.8 mm
04:06 PM 81.6°F27.6°C 68.9°F20.5°C 65% 2.8 mph SW4.5 kmh SW 11.0 mph17.7 kmh 29.80 in1009.1 mb 0.00 in0.0 mm 0.00 in0.0 mm 0.03 in0.8 mm
04:11 PM 82.2°F27.9°C 68.6°F20.3°C 63% 3.3 mph SW5.3 kmh SW 11.0 mph17.7 kmh 29.79 in1008.8 mb 0.00 in0.0 mm 0.00 in0.0 mm 0.03 in0.8 mm
04:16 PM 82.4°F28.0°C 67.9°F19.9°C 61% 3.8 mph SW6.1 kmh SW 13.0 mph20.9 kmh 29.79 in1008.8 mb 0.00 in0.0 mm 0.00 in0.0 mm 0.03 in0.8 mm
04:21 PM 82.8°F28.2°C 68.2°F20.1°C 61% 2.9 mph WSW4.7 kmh WSW 13.0 mph20.9 kmh 29.79 in1008.8 mb 0.00 in0.0 mm 0.00 in0.0 mm 0.03 in0.8 mm
04:26 PM 83.0°F28.3°C 67.4°F19.7°C 59% 4.1 mph WSW6.6 kmh WSW 16.0 mph25.7 kmh 29.79 in1008.8 mb 0.00 in0.0 mm 0.00 in0.0 mm 0.03 in0.8 mm
04:31 PM 83.3°F28.5°C 67.7°F19.8°C 59% 4.2 mph W6.8 kmh W 16.0 mph25.7 kmh 29.79 in1008.8 mb 0.00 in0.0 mm 0.00 in0.0 mm 0.03 in0.8 mm
04:36 PM 83.2°F28.4°C 67.1°F19.5°C 58% 3.3 mph W5.3 kmh W 16.0 mph25.7 kmh 29.79 in1008.8 mb 0.00 in0.0 mm 0.00 in0.0 mm 0.03 in0.8 mm
04:41 PM 83.3°F28.5°C 67.2°F19.6°C 58% 6.1 mph WSW9.8 kmh WSW 16.0 mph25.7 kmh 29.79 in1008.8 mb 0.00 in0.0 mm 0.00 in0.0 mm 0.03 in0.8 mm
04:46 PM 83.1°F28.4°C 68.0°F20.0°C 60% 3.8 mph WSW6.1 kmh WSW 11.0 mph17.7 kmh 29.79 in1008.8 mb 0.00 in0.0 mm 0.00 in0.0 mm 0.03 in0.8 mm
04:51 PM 82.5°F28.1°C 67.5°F19.7°C 60% 4.3 mph SW6.9 kmh SW 11.0 mph17.7 kmh 29.79 in1008.8 mb 0.00 in0.0 mm 0.00 in0.0 mm 0.03 in0.8 mm
04:56 PM 82.0°F27.8°C 67.5°F19.7°C 61% 4.0 mph WSW6.4 kmh WSW 11.0 mph17.7 kmh 29.78 in1008.5 mb 0.00 in0.0 mm 0.00 in0.0 mm 0.03 in0.8 mm
05:01 PM 82.2°F27.9°C 67.7°F19.8°C 61% 4.3 mph WSW6.9 kmh WSW 11.0 mph17.7 kmh 29.78 in1008.5 mb 0.00 in0.0 mm 0.00 in0.0 mm 0.03 in0.8 mm
05:06 PM 82.7°F28.2°C 68.1°F20.1°C 61% 3.1 mph SW5.0 kmh SW 11.0 mph17.7 kmh 29.78 in1008.5 mb 0.00 in0.0 mm 0.00 in0.0 mm 0.03 in0.8 mm
05:11 PM 82.8°F28.2°C 67.5°F19.7°C 60% 3.9 mph SW6.3 kmh SW 11.0 mph17.7 kmh 29.78 in1008.5 mb 0.00 in0.0 mm 0.00 in0.0 mm 0.03 in0.8 mm
05:16 PM 82.9°F28.3°C 68.3°F20.2°C 61% 2.5 mph SW4.0 kmh SW 11.0 mph17.7 kmh 29.78 in1008.5 mb 0.00 in0.0 mm 0.00 in0.0 mm 0.03 in0.8 mm
05:21 PM 83.0°F28.3°C 67.9°F19.9°C 60% 3.9 mph WSW6.3 kmh WSW 10.0 mph16.1 kmh 29.78 in1008.5 mb 0.00 in0.0 mm 0.00 in0.0 mm 0.03 in0.8 mm
05:26 PM 83.3°F28.5°C 69.2°F20.7°C 62% 4.6 mph SW7.4 kmh SW 10.0 mph16.1 kmh 29.78 in1008.5 mb 0.00 in0.0 mm 0.00 in0.0 mm 0.03 in0.8 mm
05:31 PM 83.0°F28.3°C 67.9°F19.9°C 60% 3.7 mph SW6.0 kmh SW 10.0 mph16.1 kmh 29.78 in1008.5 mb 0.00 in0.0 mm 0.00 in0.0 mm 0.03 in0.8 mm
05:36 PM 82.7°F28.2°C 67.9°F19.9°C 61% 3.9 mph SW6.3 kmh SW 10.0 mph16.1 kmh 29.78 in1008.5 mb 0.00 in0.0 mm 0.00 in0.0 mm 0.03 in0.8 mm
05:41 PM 82.7°F28.2°C 68.6°F20.3°C 62% 2.3 mph SW3.7 kmh SW 10.0 mph16.1 kmh 29.78 in1008.5 mb 0.00 in0.0 mm 0.00 in0.0 mm 0.03 in0.8 mm
05:46 PM 82.3°F27.9°C 67.8°F19.9°C 61% 3.2 mph SW5.1 kmh SW 10.0 mph16.1 kmh 29.77 in1008.1 mb 0.00 in0.0 mm 0.00 in0.0 mm 0.03 in0.8 mm
05:51 PM 82.3°F27.9°C 68.2°F20.1°C 62% 2.2 mph SW3.5 kmh SW 10.0 mph16.1 kmh 29.77 in1008.1 mb 0.00 in0.0 mm 0.00 in0.0 mm 0.03 in0.8 mm
05:56 PM 82.6°F28.1°C 68.5°F20.3°C 62% 1.8 mph S2.9 kmh S 10.0 mph16.1 kmh 29.77 in1008.1 mb 0.00 in0.0 mm 0.00 in0.0 mm 0.03 in0.8 mm
06:01 PM 82.5°F28.1°C 68.9°F20.5°C 63% 1.2 mph SW1.9 kmh SW 10.0 mph16.1 kmh 29.77 in1008.1 mb 0.00 in0.0 mm 0.00 in0.0 mm 0.03 in0.8 mm
06:06 PM 82.1°F27.8°C 68.5°F20.3°C 63% 2.1 mph SSW3.4 kmh SSW 5.0 mph8.0 kmh 29.76 in1007.8 mb 0.00 in0.0 mm 0.00 in0.0 mm 0.03 in0.8 mm
06:11 PM 81.4°F27.4°C 68.3°F20.2°C 64% 2.6 mph SW4.2 kmh SW 5.0 mph8.0 kmh 29.76 in1007.8 mb 0.00 in0.0 mm 0.00 in0.0 mm 0.03 in0.8 mm
06:16 PM 81.0°F27.2°C 68.8°F20.4°C 66% 2.0 mph SW3.2 kmh SW 5.0 mph8.0 kmh 29.77 in1008.1 mb 0.00 in0.0 mm 0.00 in0.0 mm 0.03 in0.8 mm
06:21 PM 80.8°F27.1°C 69.1°F20.6°C 67% Calm Calm 5.0 mph8.0 kmh 29.76 in1007.8 mb 0.00 in0.0 mm 0.00 in0.0 mm 0.03 in0.8 mm
06:26 PM 80.7°F27.1°C 69.0°F20.6°C 67% 1.0 mph SW1.6 kmh SW 5.0 mph8.0 kmh 29.76 in1007.8 mb 0.00 in0.0 mm 0.00 in0.0 mm 0.03 in0.8 mm
06:31 PM 80.6°F27.0°C 69.3°F20.7°C 68% 1.0 mph SW1.6 kmh SW 4.0 mph6.4 kmh 29.76 in1007.8 mb 0.00 in0.0 mm 0.00 in0.0 mm 0.03 in0.8 mm
06:36 PM 80.5°F26.9°C 69.2°F20.7°C 68% 1.5 mph SW2.4 kmh SW 3.0 mph4.8 kmh 29.76 in1007.8 mb 0.00 in0.0 mm 0.00 in0.0 mm 0.03 in0.8 mm
06:41 PM 80.5°F26.9°C 69.8°F21.0°C 70% 1.0 mph SW1.6 kmh SW 3.0 mph4.8 kmh 29.76 in1007.8 mb 0.00 in0.0 mm 0.00 in0.0 mm 0.03 in0.8 mm
06:46 PM 80.3°F26.8°C 69.8°F21.0°C 70% 1.6 mph S2.6 kmh S 3.0 mph4.8 kmh 29.77 in1008.1 mb 0.00 in0.0 mm 0.00 in0.0 mm 0.03 in0.8 mm
06:51 PM 80.1°F26.7°C 70.1°F21.2°C 71% 2.2 mph SW3.5 kmh SW 4.0 mph6.4 kmh 29.77 in1008.1 mb 0.00 in0.0 mm 0.00 in0.0 mm 0.03 in0.8 mm
06:56 PM 80.0°F26.7°C 70.4°F21.3°C 72% Calm Calm 4.0 mph6.4 kmh 29.77 in1008.1 mb 0.00 in0.0 mm 0.00 in0.0 mm 0.03 in0.8 mm
07:01 PM 79.9°F26.6°C 70.1°F21.2°C 72% 1.0 mph SW1.6 kmh SW 4.0 mph6.4 kmh 29.77 in1008.1 mb 0.00 in0.0 mm 0.00 in0.0 mm 0.03 in0.8 mm
07:05 PM 79.7°F26.5°C 70.1°F21.2°C 72% 1.5 mph SW2.4 kmh SW 4.0 mph6.4 kmh 29.77 in1008.1 mb 0.00 in0.0 mm 0.00 in0.0 mm 0.03 in0.8 mm
07:10 PM 79.3°F26.3°C 69.7°F20.9°C 72% 1.9 mph SW3.1 kmh SW 4.0 mph6.4 kmh 29.77 in1008.1 mb 0.00 in0.0 mm 0.00 in0.0 mm 0.03 in0.8 mm
07:15 PM 79.2°F26.2°C 70.0°F21.1°C 73% Calm Calm 4.0 mph6.4 kmh 29.76 in1007.8 mb 0.00 in0.0 mm 0.00 in0.0 mm 0.03 in0.8 mm
07:20 PM 79.0°F26.1°C 69.8°F21.0°C 73% 1.3 mph SW2.1 kmh SW 4.0 mph6.4 kmh 29.77 in1008.1 mb 0.00 in0.0 mm 0.00 in0.0 mm 0.03 in0.8 mm
07:25 PM 78.9°F26.1°C 69.3°F20.7°C 72% 1.8 mph SW2.9 kmh SW 4.0 mph6.4 kmh 29.77 in1008.1 mb 0.00 in0.0 mm 0.00 in0.0 mm 0.03 in0.8 mm
07:30 PM 78.8°F26.0°C 69.6°F20.9°C 73% Calm Calm 3.0 mph4.8 kmh 29.77 in1008.1 mb 0.00 in0.0 mm 0.00 in0.0 mm 0.03 in0.8 mm
07:35 PM 78.7°F25.9°C 69.5°F20.8°C 73% Calm Calm 3.0 mph4.8 kmh 29.77 in1008.1 mb 0.00 in0.0 mm 0.00 in0.0 mm 0.03 in0.8 mm
07:40 PM 78.5°F25.8°C 69.3°F20.7°C 73% Calm Calm 3.0 mph4.8 kmh 29.77 in1008.1 mb 0.00 in0.0 mm 0.00 in0.0 mm 0.03 in0.8 mm
07:45 PM 78.4°F25.8°C 69.4°F20.8°C 74% Calm Calm 2.0 mph3.2 kmh 29.77 in1008.1 mb 0.00 in0.0 mm 0.00 in0.0 mm 0.03 in0.8 mm
07:50 PM 78.1°F25.6°C 69.7°F20.9°C 75% Calm Calm 1.0 mph1.6 kmh 29.76 in1007.8 mb 0.00 in0.0 mm 0.00 in0.0 mm 0.03 in0.8 mm
07:55 PM 77.9°F25.5°C 69.5°F20.8°C 75% Calm Calm 1.0 mph1.6 kmh 29.76 in1007.8 mb 0.00 in0.0 mm 0.00 in0.0 mm 0.03 in0.8 mm
08:00 PM 77.7°F25.4°C 69.7°F20.9°C 76% Calm Calm 1.0 mph1.6 kmh 29.77 in1008.1 mb 0.00 in0.0 mm 0.00 in0.0 mm 0.03 in0.8 mm
08:05 PM 77.5°F25.3°C 69.9°F21.1°C 77% Calm Calm 1.0 mph1.6 kmh 29.76 in1007.8 mb 0.00 in0.0 mm 0.00 in0.0 mm 0.03 in0.8 mm
08:10 PM 77.3°F25.2°C 70.0°F21.1°C 78% Calm Calm 1.0 mph1.6 kmh 29.76 in1007.8 mb 0.00 in0.0 mm 0.00 in0.0 mm 0.03 in0.8 mm
08:15 PM 77.1°F25.1°C 69.7°F20.9°C 78% Calm Calm 1.0 mph1.6 kmh 29.76 in1007.8 mb 0.00 in0.0 mm 0.00 in0.0 mm 0.03 in0.8 mm
08:20 PM 77.0°F25.0°C 69.4°F20.8°C 77% Calm Calm 1.0 mph1.6 kmh 29.76 in1007.8 mb 0.00 in0.0 mm 0.00 in0.0 mm 0.03 in0.8 mm
08:25 PM 76.9°F24.9°C 69.3°F20.7°C 77% 1.0 mph SW1.6 kmh SW 1.0 mph1.6 kmh 29.76 in1007.8 mb 0.00 in0.0 mm 0.00 in0.0 mm 0.03 in0.8 mm
08:30 PM 76.9°F24.9°C 68.2°F20.1°C 74% 1.8 mph NW2.9 kmh NW 3.0 mph4.8 kmh 29.76 in1007.8 mb 0.00 in0.0 mm 0.00 in0.0 mm 0.03 in0.8 mm
08:35 PM 77.0°F25.0°C 67.9°F19.9°C 73% 1.7 mph W2.7 kmh W 3.0 mph4.8 kmh 29.76 in1007.8 mb 0.00 in0.0 mm 0.00 in0.0 mm 0.03 in0.8 mm
08:40 PM 77.0°F25.0°C 67.5°F19.7°C 72% 1.1 mph WNW1.8 kmh WNW 3.0 mph4.8 kmh 29.76 in1007.8 mb 0.00 in0.0 mm 0.00 in0.0 mm 0.03 in0.8 mm
08:45 PM 76.8°F24.9°C 67.3°F19.6°C 72% 1.4 mph W2.3 kmh W 4.0 mph6.4 kmh 29.76 in1007.8 mb 0.00 in0.0 mm 0.00 in0.0 mm 0.03 in0.8 mm
08:50 PM 76.8°F24.9°C 67.1°F19.5°C 72% Calm Calm 4.0 mph6.4 kmh 29.76 in1007.8 mb 0.00 in0.0 mm 0.00 in0.0 mm 0.03 in0.8 mm
08:55 PM 76.7°F24.8°C 67.2°F19.6°C 72% 1.0 mph NW1.6 kmh NW 4.0 mph6.4 kmh 29.75 in1007.5 mb 0.00 in0.0 mm 0.00 in0.0 mm 0.03 in0.8 mm
09:00 PM 76.6°F24.8°C 67.5°F19.7°C 73% 1.6 mph NE2.6 kmh NE 4.0 mph6.4 kmh 29.75 in1007.5 mb 0.00 in0.0 mm 0.00 in0.0 mm 0.03 in0.8 mm
09:05 PM 76.4°F24.7°C 67.5°F19.7°C 74% 1.0 mph NE1.6 kmh NE 4.0 mph6.4 kmh 29.76 in1007.8 mb 0.00 in0.0 mm 0.00 in0.0 mm 0.03 in0.8 mm
09:10 PM 76.4°F24.7°C 67.7°F19.8°C 74% 1.8 mph NE2.9 kmh NE 4.0 mph6.4 kmh 29.76 in1007.8 mb 0.00 in0.0 mm 0.00 in0.0 mm 0.03 in0.8 mm
09:15 PM 76.0°F24.4°C 67.9°F19.9°C 76% 1.9 mph SW3.1 kmh SW 4.0 mph6.4 kmh 29.79 in1008.8 mb 0.02 in0.5 mm 0.24 in6.1 mm 0.05 in1.3 mm
09:20 PM 73.8°F23.2°C 68.4°F20.2°C 83% 5.2 mph SW8.4 kmh SW 27.0 mph43.5 kmh 29.83 in1010.2 mb 0.18 in4.6 mm 1.92 in48.8 mm 0.21 in5.3 mm
09:25 PM 71.4°F21.9°C 67.7°F19.8°C 88% 4.8 mph WSW7.7 kmh WSW 27.0 mph43.5 kmh 29.83 in1010.2 mb 0.58 in14.7 mm 4.80 in121.9 mm 0.61 in15.5 mm
09:30 PM 70.0°F21.1°C 67.2°F19.6°C 91% 2.6 mph SW4.2 kmh SW 27.0 mph43.5 kmh 29.83 in1010.2 mb 0.70 in17.8 mm 1.44 in36.6 mm 0.73 in18.5 mm
09:35 PM 69.4°F20.8°C 66.9°F19.4°C 92% 1.4 mph SSW2.3 kmh SSW 27.0 mph43.5 kmh 29.82 in1009.8 mb 0.79 in20.1 mm 1.08 in27.4 mm 0.82 in20.8 mm
09:40 PM 69.2°F20.7°C 67.4°F19.7°C 94% 1.1 mph S1.8 kmh S 15.0 mph24.1 kmh 29.82 in1009.8 mb 0.81 in20.6 mm 0.24 in6.1 mm 0.84 in21.3 mm
09:45 PM 69.1°F20.6°C 67.3°F19.6°C 94% 1.2 mph SE1.9 kmh SE 7.0 mph11.3 kmh 29.81 in1009.5 mb 0.83 in21.1 mm 0.24 in6.1 mm 0.86 in21.8 mm
09:50 PM 69.0°F20.6°C 67.2°F19.6°C 94% 1.9 mph SSE3.1 kmh SSE 4.0 mph6.4 kmh 29.81 in1009.5 mb 0.84 in21.3 mm 0.12 in3.0 mm 0.87 in22.1 mm
09:55 PM 68.8°F20.4°C 67.3°F19.6°C 95% Calm Calm 4.0 mph6.4 kmh 29.81 in1009.5 mb 0.85 in21.6 mm 0.12 in3.0 mm 0.88 in22.4 mm
10:00 PM 68.5°F20.3°C 67.0°F19.4°C 95% 2.0 mph SW3.2 kmh SW 6.0 mph9.7 kmh 29.81 in1009.5 mb 0.87 in22.1 mm 0.02 in0.5 mm 0.90 in22.9 mm
10:05 PM 68.2°F20.1°C 66.7°F19.3°C 95% 2.4 mph S3.9 kmh S 6.0 mph9.7 kmh 29.81 in1009.5 mb 0.89 in22.6 mm 0.24 in6.1 mm 0.92 in23.4 mm
10:10 PM 67.8°F19.9°C 66.3°F19.1°C 95% 1.7 mph S2.7 kmh S 6.0 mph9.7 kmh 29.81 in1009.5 mb 0.91 in23.1 mm 0.24 in6.1 mm 0.94 in23.9 mm
10:15 PM 67.5°F19.7°C 66.0°F18.9°C 95% 1.5 mph SE2.4 kmh SE 6.0 mph9.7 kmh 29.80 in1009.1 mb 0.90 in22.9 mm 0.00 in0.0 mm 0.95 in24.1 mm
10:20 PM 67.3°F19.6°C 65.8°F18.8°C 95% 1.2 mph SSW1.9 kmh SSW 9.0 mph14.5 kmh 29.79 in1008.8 mb 0.75 in19.1 mm 0.00 in0.0 mm 0.96 in24.4 mm
10:25 PM 67.1°F19.5°C 65.6°F18.7°C 95% 1.3 mph SSE2.1 kmh SSE 9.0 mph14.5 kmh 29.79 in1008.8 mb 0.36 in9.1 mm 0.00 in0.0 mm 0.97 in24.6 mm
10:30 PM 67.0°F19.4°C 65.8°F18.8°C 96% 1.2 mph S1.9 kmh S 9.0 mph14.5 kmh 29.79 in1008.8 mb 0.24 in6.1 mm 0.00 in0.0 mm 0.98 in24.9 mm
10:35 PM 67.0°F19.4°C 65.8°F18.8°C 96% Calm Calm 9.0 mph14.5 kmh 29.78 in1008.5 mb 0.16 in4.1 mm 0.00 in0.0 mm 0.99 in25.1 mm
10:40 PM 66.9°F19.4°C 65.7°F18.7°C 96% Calm Calm 6.0 mph9.7 kmh 29.79 in1008.8 mb 0.15 in3.8 mm 0.00 in0.0 mm 0.99 in25.1 mm
10:45 PM 66.9°F19.4°C 65.7°F18.7°C 96% Calm Calm 2.0 mph3.2 kmh 29.78 in1008.5 mb 0.14 in3.6 mm 0.00 in0.0 mm 1.00 in25.4 mm
10:50 PM 66.9°F19.4°C 65.7°F18.7°C 96% 1.0 mph SSE1.6 kmh SSE 3.0 mph4.8 kmh 29.78 in1008.5 mb 0.13 in3.3 mm 0.00 in0.0 mm 1.00 in25.4 mm
10:55 PM 66.9°F19.4°C 65.7°F18.7°C 96% 1.0 mph SE1.6 kmh SE 4.0 mph6.4 kmh 29.77 in1008.1 mb 0.13 in3.3 mm 0.00 in0.0 mm 1.01 in25.7 mm
11:00 PM 66.9°F19.4°C 65.7°F18.7°C 96% 1.9 mph SE3.1 kmh SE 5.0 mph8.0 kmh 29.77 in1008.1 mb 0.11 in2.8 mm 0.00 in0.0 mm 1.01 in25.7 mm
11:05 PM 66.9°F19.4°C 65.7°F18.7°C 96% 1.6 mph S2.6 kmh S 5.0 mph8.0 kmh 29.76 in1007.8 mb 0.09 in2.3 mm 0.00 in0.0 mm 1.01 in25.7 mm
11:10 PM 66.8°F19.3°C 65.6°F18.7°C 96% 2.5 mph SE4.0 kmh SE 5.0 mph8.0 kmh 29.76 in1007.8 mb 0.07 in1.8 mm 0.00 in0.0 mm 1.01 in25.7 mm
11:15 PM 66.8°F19.3°C 65.6°F18.7°C 96% 2.3 mph SE3.7 kmh SE 5.0 mph8.0 kmh 29.75 in1007.5 mb 0.06 in1.5 mm 0.00 in0.0 mm 1.01 in25.7 mm
11:20 PM 66.8°F19.3°C 65.9°F18.8°C 97% 2.0 mph SE3.2 kmh SE 5.0 mph8.0 kmh 29.76 in1007.8 mb 0.05 in1.3 mm 0.00 in0.0 mm 1.01 in25.7 mm
11:25 PM 66.9°F19.4°C 66.0°F18.9°C 97% 1.8 mph SE2.9 kmh SE 5.0 mph8.0 kmh 29.76 in1007.8 mb 0.04 in1.0 mm 0.00 in0.0 mm 1.01 in25.7 mm
11:30 PM 66.9°F19.4°C 66.0°F18.9°C 97% 1.6 mph SE2.6 kmh SE 5.0 mph8.0 kmh 29.76 in1007.8 mb 0.03 in0.8 mm 0.00 in0.0 mm 1.01 in25.7 mm
11:35 PM 66.8°F19.3°C 65.9°F18.8°C 97% 2.1 mph SE3.4 kmh SE 6.0 mph9.7 kmh 29.76 in1007.8 mb 0.02 in0.5 mm 0.00 in0.0 mm 1.01 in25.7 mm
11:40 PM 66.7°F19.3°C 65.8°F18.8°C 97% 2.0 mph SSE3.2 kmh SSE 6.0 mph9.7 kmh 29.76 in1007.8 mb 0.02 in0.5 mm 0.00 in0.0 mm 1.01 in25.7 mm
11:45 PM 66.7°F19.3°C 65.8°F18.8°C 97% 1.4 mph S2.3 kmh S 7.0 mph11.3 kmh 29.77 in1008.1 mb 0.01 in0.3 mm 0.00 in0.0 mm 1.01 in25.7 mm
11:50 PM 66.7°F19.3°C 65.8°F18.8°C 97% 1.6 mph SSW2.6 kmh SSW 7.0 mph11.3 kmh 29.77 in1008.1 mb 0.01 in0.3 mm 0.00 in0.0 mm 1.01 in25.7 mm
11:55 PM 66.7°F19.3°C 65.8°F18.8°C 97% 1.2 mph SW1.9 kmh SW 7.0 mph11.3 kmh 29.77 in1008.1 mb 0.00 in0.0 mm 0.00 in0.0 mm 1.01 in25.7 mm